createdAt,value
2022-09-02T00:02:10.766Z,19.07
2022-09-02T00:07:12.323Z,18.98
2022-09-02T00:12:13.925Z,18.97
2022-09-02T00:17:15.445Z,19.01
2022-09-02T00:22:17.083Z,18.84
2022-09-02T00:27:18.593Z,18.86
2022-09-02T00:32:20.299Z,18.95
2022-09-02T00:37:21.784Z,18.84
2022-09-02T00:42:24.737Z,18.81
2022-09-02T00:47:27.096Z,18.77
2022-09-02T00:52:33.278Z,18.76
2022-09-02T00:57:52.760Z,18.66
2022-09-02T01:03:00.899Z,18.50
2022-09-02T01:08:03.116Z,18.54
2022-09-02T01:13:11.392Z,18.55
2022-09-02T01:18:22.721Z,18.54
2022-09-02T01:23:24.496Z,18.71
2022-09-02T01:28:26.849Z,18.67
2022-09-02T01:33:29.070Z,18.72
2022-09-02T01:38:33.211Z,18.73
2022-09-02T01:43:34.906Z,18.65
2022-09-02T01:48:36.622Z,18.62
2022-09-02T01:53:38.148Z,18.68
2022-09-02T01:58:42.093Z,18.79
2022-09-02T02:03:43.698Z,18.68
2022-09-02T02:08:45.544Z,18.75
2022-09-02T02:13:47.196Z,18.68
2022-09-02T02:18:48.811Z,18.80
2022-09-02T02:23:50.927Z,18.84
2022-09-02T02:28:52.789Z,18.92
2022-09-02T02:33:54.481Z,18.87
2022-09-02T02:38:56.378Z,18.80
2022-09-02T02:43:59.011Z,18.81
2022-09-02T02:49:01.498Z,18.76
2022-09-02T02:54:04.347Z,18.70
2022-09-02T02:59:05.984Z,18.67
2022-09-02T03:04:08.525Z,18.76
2022-09-02T03:09:10.181Z,18.64
2022-09-02T03:14:12.756Z,18.68
2022-09-02T03:19:14.540Z,18.69
2022-09-02T03:24:16.512Z,18.64
2022-09-02T03:29:18.250Z,18.68
2022-09-02T03:34:19.873Z,18.69
2022-09-02T03:39:21.487Z,18.70
2022-09-02T03:44:23.710Z,18.51
2022-09-02T03:49:26.664Z,18.52
2022-09-02T03:54:29.065Z,18.57
2022-09-02T03:59:31.519Z,18.62
2022-09-02T04:04:33.504Z,18.58
2022-09-02T04:09:35.119Z,18.45
2022-09-02T04:14:37.059Z,18.52
2022-09-02T04:19:40.252Z,18.61
2022-09-02T04:24:41.918Z,18.60
2022-09-02T04:29:43.848Z,18.58
2022-09-02T04:34:46.029Z,18.52
2022-09-02T04:39:52.688Z,18.46
2022-09-02T04:44:56.497Z,18.47
2022-09-02T04:49:58.525Z,18.40
2022-09-02T04:55:00.641Z,18.55
2022-09-02T05:00:07.234Z,18.53
2022-09-02T05:05:09.834Z,18.69
2022-09-02T05:10:15.000Z,18.67
2022-09-02T05:15:18.600Z,18.91
2022-09-02T05:20:21.945Z,18.86
2022-09-02T05:25:23.878Z,18.89
2022-09-02T05:30:25.654Z,18.61
2022-09-02T05:35:29.297Z,18.71
2022-09-02T05:40:30.910Z,18.75
2022-09-02T05:45:34.330Z,18.88
2022-09-02T05:50:37.548Z,19.19
2022-09-02T05:55:39.457Z,19.34
2022-09-02T06:00:41.048Z,19.30
2022-09-02T06:05:42.896Z,19.28
2022-09-02T06:10:52.644Z,19.31
2022-09-02T06:15:57.749Z,19.23
2022-09-02T06:21:04.486Z,19.08
2022-09-02T06:26:12.117Z,19.25
2022-09-02T06:31:17.986Z,19.02
2022-09-02T06:36:21.324Z,19.10
2022-09-02T06:41:28.291Z,19.18
2022-09-02T06:46:35.561Z,19.13
2022-09-02T06:51:43.757Z,19.25
2022-09-02T06:56:49.665Z,19.16
2022-09-02T07:01:53.952Z,19.27
2022-09-02T07:06:58.068Z,19.27
2022-09-02T07:12:05.641Z,19.27
2022-09-02T07:17:21.769Z,19.32
2022-09-02T07:22:28.215Z,19.64
2022-09-02T07:27:29.958Z,19.92
2022-09-02T07:32:32.600Z,20.09
2022-09-02T07:37:37.632Z,20.33
2022-09-02T07:42:42.126Z,20.38
2022-09-02T07:47:43.972Z,20.66
2022-09-02T07:52:49.799Z,20.74
2022-09-02T07:57:54.460Z,21.07
2022-09-02T08:02:57.845Z,21.17
2022-09-02T08:08:07.922Z,21.20
2022-09-02T08:13:10.513Z,21.29
2022-09-02T08:18:21.129Z,21.46
2022-09-02T08:23:36.663Z,21.55
2022-09-02T08:28:39.332Z,21.54
2022-09-02T08:33:40.872Z,21.85
2022-09-02T08:38:43.004Z,21.99
2022-09-02T08:43:45.462Z,22.10
2022-09-02T08:48:54.037Z,22.18
2022-09-02T08:54:09.770Z,22.28
2022-09-02T08:59:15.079Z,22.45
2022-09-02T09:04:54.364Z,22.64
2022-09-02T09:10:15.013Z,22.59
2022-09-02T09:15:40.965Z,22.61
2022-09-02T09:20:44.175Z,22.77
2022-09-02T09:25:49.688Z,22.68
2022-09-02T09:30:51.209Z,22.85
2022-09-02T09:35:55.254Z,23.17
2022-09-02T09:41:16.920Z,23.06
2022-09-02T09:46:32.103Z,23.30
2022-09-02T09:51:49.949Z,23.38
2022-09-02T09:56:52.895Z,23.39
2022-09-02T10:01:56.740Z,23.44
2022-09-02T10:06:58.979Z,23.60
2022-09-02T10:12:00.503Z,23.62
2022-09-02T10:17:36.148Z,23.85
2022-09-02T10:23:24.204Z,23.97
2022-09-02T10:29:10.029Z,24.12
2022-09-02T10:34:21.169Z,24.24
2022-09-02T10:39:34.877Z,24.42
2022-09-02T10:44:55.635Z,24.58
2022-09-02T10:50:10.060Z,24.84
2022-09-02T10:55:11.609Z,24.83
2022-09-02T11:00:16.935Z,25.05
2022-09-02T11:05:27.545Z,25.10
2022-09-02T11:10:38.352Z,25.24
2022-09-02T11:16:39.122Z,25.39
2022-09-02T11:22:03.584Z,25.36
2022-09-02T11:27:39.069Z,25.37
2022-09-02T11:33:01.111Z,25.61
2022-09-02T11:38:05.848Z,25.62
2022-09-02T11:43:16.371Z,25.79
2022-09-02T11:48:39.397Z,25.88
2022-09-02T11:53:45.049Z,26.13
2022-09-02T11:58:49.557Z,25.84
2022-09-02T12:04:58.447Z,25.81
2022-09-02T12:09:47.589Z,25.84
2022-09-02T12:14:49.483Z,25.94
2022-09-02T12:19:51.724Z,25.94
2022-09-02T12:24:56.726Z,25.93
2022-09-02T12:29:58.921Z,25.95
2022-09-02T12:35:10.625Z,25.91
2022-09-02T12:40:19.015Z,26.12
2022-09-02T12:45:29.212Z,26.01
2022-09-02T12:51:00.009Z,26.09
2022-09-02T12:56:06.898Z,26.14
2022-09-02T13:01:37.091Z,26.06
2022-09-02T13:07:16.661Z,26.29
2022-09-02T13:12:46.736Z,26.36
2022-09-02T13:18:16.817Z,26.65
2022-09-02T13:23:42.396Z,26.57
2022-09-02T13:28:55.812Z,26.70
2022-09-02T13:34:04.269Z,26.59
2022-09-02T13:39:25.135Z,26.50
2022-09-02T13:44:29.458Z,26.62
2022-09-02T13:49:37.719Z,26.68
2022-09-02T13:54:43.317Z,26.77
2022-09-02T13:59:50.663Z,26.81
2022-09-02T14:05:14.045Z,26.82
2022-09-02T14:10:19.626Z,26.93
2022-09-02T14:15:27.808Z,26.90
2022-09-02T14:20:29.519Z,27.04
2022-09-02T14:25:39.152Z,26.86
2022-09-02T14:30:41.512Z,27.08
2022-09-02T14:35:59.142Z,27.24
2022-09-02T14:41:10.699Z,27.27
2022-09-02T14:46:32.920Z,27.18
2022-09-02T14:51:39.115Z,27.18
2022-09-02T14:56:45.319Z,27.15
2022-09-02T15:01:51.379Z,27.23
2022-09-02T15:06:53.485Z,27.30
2022-09-02T15:11:56.811Z,27.21
2022-09-02T15:17:01.790Z,27.25
2022-09-02T15:22:03.443Z,27.18
2022-09-02T15:27:05.582Z,27.31
2022-09-02T15:32:09.865Z,27.23
2022-09-02T15:37:13.243Z,27.26
2022-09-02T15:42:14.878Z,27.19
2022-09-02T15:47:16.428Z,27.14
2022-09-02T15:52:18.045Z,27.08
2022-09-02T15:57:19.568Z,27.09
2022-09-02T16:02:21.151Z,27.04
2022-09-02T16:07:22.749Z,26.98
2022-09-02T16:12:25.446Z,26.65
2022-09-02T16:17:26.989Z,26.53
2022-09-02T16:22:28.555Z,26.40
2022-09-02T16:27:48.513Z,26.37
2022-09-02T16:32:52.900Z,26.21
2022-09-02T16:37:56.888Z,26.18
2022-09-02T16:42:58.498Z,26.05
2022-09-02T16:48:00.267Z,26.03
2022-09-02T16:53:01.801Z,25.96
2022-09-02T16:58:03.302Z,25.77
2022-09-02T17:03:14.523Z,25.76
2022-09-02T17:08:16.996Z,25.55
2022-09-02T17:13:18.552Z,25.55
2022-09-02T17:18:20.789Z,25.37
2022-09-02T17:23:22.329Z,25.33
2022-09-02T17:28:27.051Z,25.22
2022-09-02T17:33:28.660Z,25.14
2022-09-02T17:38:30.141Z,25.05
2022-09-02T17:43:31.785Z,25.04
2022-09-02T17:48:41.883Z,24.94
2022-09-02T17:53:54.853Z,24.80
2022-09-02T17:59:11.206Z,24.78
2022-09-02T18:04:26.155Z,24.64
2022-09-02T18:09:28.401Z,24.51
2022-09-02T18:14:38.180Z,24.31
2022-09-02T18:19:53.915Z,24.23
2022-09-02T18:25:18.946Z,24.11
2022-09-02T18:30:24.800Z,23.93
2022-09-02T18:35:26.369Z,23.87
2022-09-02T18:40:59.825Z,23.82
2022-09-02T18:46:02.210Z,23.67
2022-09-02T18:51:11.465Z,23.64
2022-09-02T18:56:17.881Z,23.49
2022-09-02T19:01:19.387Z,23.54
2022-09-02T19:06:28.821Z,23.39
2022-09-02T19:11:40.069Z,23.32
2022-09-02T19:16:41.607Z,23.29
2022-09-02T19:21:48.532Z,23.21
2022-09-02T19:26:56.501Z,23.00
2022-09-02T19:31:58.165Z,22.99
2022-09-02T19:36:59.917Z,22.88
2022-09-02T19:42:01.429Z,22.88
2022-09-02T19:52:24.413Z,22.69
2022-09-02T19:57:26.337Z,22.71
2022-09-02T20:02:27.846Z,22.58
2022-09-02T20:07:29.404Z,22.57
2022-09-02T20:12:35.761Z,22.43
2022-09-02T20:17:37.400Z,22.44
2022-09-02T20:22:38.977Z,22.27
2022-09-02T20:28:01.201Z,22.06
2022-09-02T20:33:16.082Z,22.15
2022-09-02T20:38:41.875Z,22.03
2022-09-02T20:44:25.337Z,21.97
2022-09-02T20:49:53.960Z,21.89
2022-09-02T20:55:02.698Z,21.94
2022-09-02T21:00:09.744Z,21.69
2022-09-02T21:05:22.383Z,21.78
2022-09-02T21:10:32.411Z,21.47
2022-09-02T21:15:45.181Z,21.49
2022-09-02T21:20:56.548Z,21.30
2022-09-02T21:26:06.060Z,21.22
2022-09-02T21:31:18.480Z,21.26
2022-09-02T21:36:26.927Z,21.09
2022-09-02T21:41:32.049Z,20.98
2022-09-02T21:46:46.397Z,20.98
2022-09-02T21:52:12.802Z,20.83
2022-09-02T21:57:44.353Z,20.79
2022-09-02T22:03:30.145Z,20.67
2022-09-02T22:08:41.109Z,20.72
2022-09-02T22:13:42.743Z,20.68
2022-09-02T22:19:00.266Z,20.52
2022-09-02T22:24:01.831Z,20.43
2022-09-02T22:29:11.425Z,20.37
2022-09-02T22:34:16.045Z,20.40
2022-09-02T22:39:17.944Z,20.42
2022-09-02T22:45:06.880Z,20.26
2022-09-02T22:50:32.029Z,20.20
2022-09-02T22:56:04.149Z,20.17
2022-09-02T23:01:34.048Z,20.11
2022-09-02T23:06:35.627Z,19.98
2022-09-02T23:11:51.113Z,19.94
2022-09-02T23:17:05.061Z,19.92
2022-09-02T23:22:43.766Z,19.84
2022-09-02T23:28:13.190Z,19.79
2022-09-02T23:33:15.261Z,19.64
2022-09-02T23:38:46.873Z,19.43
2022-09-02T23:43:49.507Z,19.36
2022-09-02T23:49:14.951Z,19.47
2022-09-02T23:54:31.881Z,19.58
2022-09-02T23:59:52.958Z,19.45
